Time;durP1;ratioP1;P1;durP2;ratioP2;P2;SDS_P1;SDS_P2;PMS_P1;PMS_P2;Temp;Humidity;BMP_temperature;BMP_pressure;BME280_temperature;BME280_humidity;BME280_pressure;Samples;Min_cycle;Max_cycle;Signal;HPM_P1;HPM_P2
2023/04/02 00:02:31;;;;;;;0.80;0.65;;;;;;;10.68;59.77;98743.50;4326605;32;20142;-87
2023/04/02 00:05:16;;;;;;;1.33;0.60;;;;;;;10.51;59.77;98741.69;4342731;32;20416;-87
2023/04/02 00:07:43;;;;;;;0.90;0.43;;;;;;;10.54;59.76;98741.53;4351199;32;20170;-87
2023/04/02 00:10:37;;;;;;;1.92;0.60;;;;;;;10.56;59.77;98741.47;4339023;32;20166;-87
2023/04/02 00:13:04;;;;;;;0.60;0.50;;;;;;;10.54;59.76;98746.75;4351041;32;20087;-87
2023/04/02 00:15:29;;;;;;;0.95;0.50;;;;;;;10.61;59.77;98745.53;4338800;32;20103;-87
2023/04/02 00:17:55;;;;;;;1.02;0.40;;;;;;;10.49;59.77;98750.50;4338681;32;20129;-87
2023/04/02 00:20:21;;;;;;;4.07;0.62;;;;;;;10.47;59.76;98749.72;4338748;32;20554;-87
2023/04/02 00:22:46;;;;;;;1.20;0.50;;;;;;;10.53;59.76;98750.28;4325888;32;22521;-87
2023/04/02 00:25:12;;;;;;;0.80;0.45;;;;;;;10.63;59.78;98746.28;4338809;32;20106;-87
2023/04/02 00:27:37;;;;;;;1.05;0.70;;;;;;;10.63;59.78;98751.50;4338602;32;20154;-87
2023/04/02 00:30:03;;;;;;;2.62;0.73;;;;;;;10.66;59.77;98747.94;4338711;32;20119;-87
2023/04/02 00:32:32;;;;;;;0.95;0.70;;;;;;;10.52;59.76;98753.78;4326375;32;20110;-87
2023/04/02 00:34:58;;;;;;;1.10;0.80;;;;;;;10.43;59.76;98754.22;4338695;32;20428;-87
2023/04/02 00:37:26;;;;;;;0.77;0.60;;;;;;;10.52;59.76;98751.19;4338634;32;20103;-87
2023/04/02 00:39:57;;;;;;;2.95;0.80;;;;;;;10.54;59.76;98756.31;4338963;32;20542;-87
2023/04/02 00:42:24;;;;;;;1.25;0.80;;;;;;;10.70;59.78;98749.47;4326374;32;20523;-87
2023/04/02 00:44:49;;;;;;;1.10;0.70;;;;;;;10.49;59.76;98756.53;4338951;32;20132;-87
2023/04/02 00:47:19;;;;;;;1.45;0.60;;;;;;;10.24;59.76;98764.66;4338611;32;20193;-86
2023/04/02 00:49:44;;;;;;;0.80;0.70;;;;;;;10.48;59.77;98765.25;4350895;32;20142;-88
2023/04/02 00:52:17;;;;;;;0.70;0.60;;;;;;;10.54;59.76;98764.13;4338489;32;20091;-88
2023/04/02 00:55:04;;;;;;;1.10;0.90;;;;;;;10.51;59.77;98766.87;4338531;32;20103;-87
2023/04/02 00:57:29;;;;;;;1.27;0.68;;;;;;;10.30;59.75;98764.34;4327102;32;20782;-87
2023/04/02 00:59:59;;;;;;;1.10;0.60;;;;;;;10.34;59.76;98768.50;4350685;32;20110;-88
2023/04/02 01:02:29;;;;;;;1.02;0.50;;;;;;;10.40;59.77;98762.16;4350648;32;20161;-87
2023/04/02 01:05:15;;;;;;;1.60;0.88;;;;;;;10.44;59.77;98761.97;4338268;32;20107;-86
2023/04/02 01:08:02;;;;;;;2.33;0.90;;;;;;;10.49;59.77;98751.34;4352552;32;20134;-85
2023/04/02 01:10:34;;;;;;;1.62;0.60;;;;;;;10.47;59.77;98755.78;4350284;32;20171;-88
2023/04/02 01:13:10;;;;;;;1.55;0.70;;;;;;;10.50;59.77;98752.19;4364315;32;20400;-87
2023/04/02 01:15:37;;;;;;;1.55;0.90;;;;;;;10.50;59.77;98750.41;4350689;32;20114;-87
2023/04/02 01:18:17;;;;;;;1.17;0.85;;;;;;;10.52;59.77;98750.34;4326143;32;20468;-88
2023/04/02 01:21:21;;;;;;;1.00;0.60;;;;;;;10.45;59.76;98758.44;4351355;32;20550;-88
2023/04/02 01:24:11;;;;;;;2.08;1.20;;;;;;;10.63;59.78;98759.31;4360250;32;98182;-87
2023/04/02 01:26:57;;;;;;;2.20;0.95;;;;;;;10.56;59.77;98768.34;4350519;32;20106;-87
2023/04/02 01:29:33;;;;;;;1.05;0.85;;;;;;;10.56;59.77;98773.53;4339266;32;20115;-87
2023/04/02 01:32:04;;;;;;;1.33;0.68;;;;;;;10.31;59.75;98771.25;4338258;32;20617;-87
2023/04/02 01:34:30;;;;;;;1.40;0.95;;;;;;;10.27;59.75;98774.91;4338205;32;20601;-87
2023/04/02 01:37:11;;;;;;;1.33;0.80;;;;;;;10.22;59.75;98776.88;4326166;32;20149;-87
2023/04/02 01:39:55;;;;;;;;;;;;;;;10.08;59.74;98772.28;4350883;32;20173;-85
2023/04/02 01:42:35;;;;;;;3.22;1.55;;;;;;;10.13;59.75;98772.91;4364383;32;20375;-87
2023/04/02 01:45:07;;;;;;;2.97;1.55;;;;;;;9.93;59.73;98770.34;4350523;32;20099;-86
2023/04/02 01:47:32;;;;;;;2.00;1.08;;;;;;;10.07;59.74;98767.97;4338422;32;20099;-86
2023/04/02 01:50:19;;;;;;;1.40;0.90;;;;;;;10.16;59.74;98771.91;4337600;32;20099;-87
2023/04/02 01:52:49;;;;;;;1.87;0.75;;;;;;;10.07;59.74;98774.94;4350391;32;20107;-88
2023/04/02 01:55:18;;;;;;;2.22;0.80;;;;;;;10.02;59.74;98762.16;4338084;32;20558;-87
2023/04/02 01:57:46;;;;;;;2.28;1.08;;;;;;;10.15;59.74;98775.41;4325824;32;20273;-87
2023/04/02 02:00:16;;;;;;;2.50;0.98;;;;;;;10.13;59.75;98780.69;4338247;32;20120;-88
2023/04/02 02:02:41;;;;;;;1.60;0.82;;;;;;;10.05;59.74;98775.00;4338820;32;20103;-87
2023/04/02 02:05:14;;;;;;;1.87;0.90;;;;;;;9.91;59.73;98786.94;4338062;32;20133;-87
2023/04/02 02:07:40;;;;;;;1.48;0.68;;;;;;;9.72;59.73;98784.31;4337977;32;20091;-87
2023/04/02 02:10:09;;;;;;;2.55;1.08;;;;;;;9.89;59.73;98781.81;4338044;32;20465;-87
2023/04/02 02:12:35;;;;;;;0.82;0.70;;;;;;;9.87;59.73;98790.59;4338180;32;20087;-88
2023/04/02 02:15:00;;;;;;;2.53;1.15;;;;;;;9.89;59.73;98794.78;4350032;32;20166;-87
2023/04/02 02:17:28;;;;;;;2.25;0.90;;;;;;;10.00;59.74;98792.59;4337765;32;20739;-87
2023/04/02 02:19:55;;;;;;;1.83;1.08;;;;;;;10.04;59.74;98785.47;4338053;32;20165;-88
2023/04/02 02:22:26;;;;;;;2.80;0.90;;;;;;;9.90;59.73;98793.03;4324503;32;20102;-87
2023/04/02 02:24:52;;;;;;;1.23;0.62;;;;;;;9.93;59.73;98787.69;4350191;32;20483;-87
2023/04/02 02:27:21;;;;;;;1.08;0.70;;;;;;;10.12;59.74;98789.41;4338016;32;20079;-87
2023/04/02 02:29:50;;;;;;;1.77;0.90;;;;;;;10.13;59.74;98793.69;4350123;32;20103;-88
2023/04/02 02:32:16;;;;;;;1.58;0.77;;;;;;;10.05;59.74;98790.63;4325854;32;20095;-88
2023/04/02 02:34:45;;;;;;;1.35;0.88;;;;;;;10.12;59.75;98786.81;4350226;32;20146;-87
2023/04/02 02:37:17;;;;;;;1.02;0.70;;;;;;;10.28;59.75;98788.75;4338196;32;20083;-88
2023/04/02 02:39:44;;;;;;;1.10;0.80;;;;;;;10.25;59.76;98791.50;4326106;32;20102;-87
2023/04/02 02:42:38;;;;;;;1.77;0.70;;;;;;;10.15;59.74;98785.81;4325628;32;20509;-87
2023/04/02 02:45:05;;;;;;;1.20;0.70;;;;;;;10.08;59.74;98794.81;4350181;32;20083;-87
2023/04/02 02:47:32;;;;;;;0.68;0.60;;;;;;;10.09;59.74;98794.75;4338162;32;20120;-87
2023/04/02 02:50:30;;;;;;;1.62;0.95;;;;;;;10.32;59.76;98798.09;4325527;32;20137;-87
2023/04/02 02:52:57;;;;;;;8.35;1.05;;;;;;;10.16;59.75;98788.34;4338317;32;20094;-87
2023/04/02 02:55:31;;;;;;;1.00;0.80;;;;;;;10.09;59.75;98789.56;4337839;32;20116;-88
2023/04/02 02:58:18;;;;;;;1.77;1.08;;;;;;;10.21;59.74;98789.97;4338090;32;20143;-87
2023/04/02 03:00:43;;;;;;;1.30;0.93;;;;;;;10.18;59.75;98785.72;4350107;32;20095;-87
2023/04/02 03:03:13;;;;;;;1.20;0.80;;;;;;;10.25;59.75;98792.34;4337754;32;20162;-87
2023/04/02 03:05:38;;;;;;;0.80;0.62;;;;;;;10.32;59.76;98791.13;4337868;32;20088;-87
2023/04/02 03:08:04;;;;;;;0.90;0.80;;;;;;;10.24;59.75;98785.47;4337761;32;20140;-87
2023/04/02 03:10:38;;;;;;;1.50;0.82;;;;;;;10.31;59.75;98780.81;4337652;32;20121;-87
2023/04/02 03:13:23;;;;;;;1.37;1.00;;;;;;;10.28;59.75;98778.34;4337544;32;20124;-87
2023/04/02 03:16:08;;;;;;;0.98;0.70;;;;;;;10.29;59.75;98782.63;4349876;32;20686;-87
2023/04/02 03:18:52;;;;;;;3.80;1.05;;;;;;;10.35;59.75;98784.94;4351572;32;20165;-87
2023/04/02 03:21:25;;;;;;;3.72;1.00;;;;;;;10.35;59.76;98777.97;4363409;32;20091;-88
2023/04/02 03:23:59;;;;;;;0.90;0.80;;;;;;;10.29;59.75;98785.25;4349745;32;20111;-86
2023/04/02 03:26:39;;;;;;;0.95;0.80;;;;;;;10.33;59.76;98786.78;4337862;32;20220;-87
2023/04/02 03:29:06;;;;;;;1.37;0.82;;;;;;;10.40;59.76;98791.63;4349798;32;20101;-87
2023/04/02 03:31:33;;;;;;;1.25;0.90;;;;;;;10.29;59.75;98795.66;4349639;32;20158;-87
2023/04/02 03:34:03;;;;;;;1.55;0.70;;;;;;;10.27;59.75;98790.50;4349374;32;20129;-87
2023/04/02 03:36:31;;;;;;;1.00;0.85;;;;;;;10.23;59.74;98788.97;4337594;32;20160;-87
2023/04/02 03:39:11;;;;;;;1.35;0.70;;;;;;;10.22;59.75;98791.66;4337607;32;20416;-87
2023/04/02 03:41:54;;;;;;;2.65;0.70;;;;;;;10.10;59.74;98795.59;4349707;32;20481;-87
2023/04/02 03:44:42;;;;;;;3.05;0.80;;;;;;;10.18;59.75;98797.88;4349612;32;20158;-86
2023/04/02 03:47:23;;;;;;;1.23;0.85;;;;;;;10.20;59.75;98803.84;4349478;32;20221;-86
2023/04/02 03:49:53;;;;;;;1.00;0.73;;;;;;;10.19;59.75;98805.59;4363137;32;20094;-86
2023/04/02 03:52:25;;;;;;;0.60;0.57;;;;;;;10.11;59.75;98810.28;4337347;32;20163;-86
2023/04/02 03:54:51;;;;;;;0.70;0.55;;;;;;;10.12;59.74;98812.81;4325237;32;20174;-87
2023/04/02 03:57:39;;;;;;;0.85;0.80;;;;;;;10.14;59.74;98812.75;4324964;32;20144;-87
2023/04/02 04:00:25;;;;;;;1.70;0.90;;;;;;;10.25;59.76;98812.31;4337327;32;20463;-87
2023/04/02 04:02:51;;;;;;;2.58;0.70;;;;;;;10.10;59.74;98811.19;4338181;32;20114;-87
2023/04/02 04:05:23;;;;;;;1.00;0.70;;;;;;;10.07;59.74;98809.59;4324558;32;20599;-86
2023/04/02 04:07:50;;;;;;;3.03;0.98;;;;;;;10.13;59.74;98809.31;4324863;32;20113;-87
2023/04/02 04:10:23;;;;;;;1.98;0.82;;;;;;;10.28;59.75;98819.97;4337023;32;20610;-87
2023/04/02 04:12:49;;;;;;;1.67;0.80;;;;;;;10.08;59.74;98820.81;4336962;32;20107;-86
2023/04/02 04:15:34;;;;;;;1.40;0.90;;;;;;;10.17;59.75;98817.81;4349145;32;20099;-87
2023/04/02 04:18:20;;;;;;;1.15;0.95;;;;;;;10.04;59.74;98824.47;4337267;32;20118;-87
2023/04/02 04:20:48;;;;;;;1.02;0.73;;;;;;;9.98;59.73;98829.97;4349582;32;20161;-87
2023/04/02 04:23:29;;;;;;;1.15;0.90;;;;;;;10.14;59.74;98826.59;4361960;32;20154;-87
2023/04/02 04:25:58;;;;;;;1.12;0.90;;;;;;;10.14;59.74;98826.59;4337332;32;20165;-86
2023/04/02 04:28:29;;;;;;;2.03;1.10;;;;;;;10.07;59.74;98826.94;4348913;32;20092;-87
2023/04/02 04:31:19;;;;;;;1.20;0.95;;;;;;;9.99;59.73;98836.84;4348755;32;20121;-87
2023/04/02 04:33:49;;;;;;;1.23;1.00;;;;;;;9.92;59.73;98836.25;4338549;32;20175;-86
2023/04/02 04:36:27;;;;;;;1.40;1.10;;;;;;;9.98;59.73;98838.59;4337076;32;20112;-87
2023/04/02 04:38:54;;;;;;;1.20;1.08;;;;;;;9.94;59.73;98838.81;4336729;32;20091;-86
2023/04/02 04:41:25;;;;;;;2.00;1.37;;;;;;;10.12;59.75;98843.19;4324668;32;20536;-87
2023/04/02 04:43:50;;;;;;;4.00;1.70;;;;;;;10.07;59.74;98846.00;4336548;32;20091;-86
2023/04/02 04:46:35;;;;;;;5.85;2.60;;;;;;;10.26;59.75;98846.03;4350297;32;20585;-87
2023/04/02 04:49:08;;;;;;;4.12;2.55;;;;;;;10.26;59.76;98845.19;4338600;32;20161;-87
2023/04/02 04:51:37;;;;;;;3.78;2.30;;;;;;;10.35;59.75;98856.03;4338472;32;20466;-87
2023/04/02 04:54:03;;;;;;;3.25;2.22;;;;;;;10.32;59.76;98844.91;4338551;32;20456;-87
2023/04/02 04:56:29;;;;;;;2.35;1.55;;;;;;;10.50;59.77;98851.91;4338326;32;20138;-87
2023/04/02 04:59:02;;;;;;;2.45;1.75;;;;;;;10.63;59.78;98855.59;4326133;32;20087;-87
2023/04/02 05:02:14;;;;;;;2.58;1.30;;;;;;;10.91;59.78;98849.97;4338249;32;20166;-87
2023/04/02 05:04:41;;;;;;;2.05;1.20;;;;;;;10.97;59.78;98847.06;4323799;32;20449;-87
2023/04/02 05:07:09;;;;;;;1.58;1.20;;;;;;;11.03;59.79;98854.56;4326128;32;20123;-87
2023/04/02 05:10:18;;;;;;;1.62;1.25;;;;;;;11.02;59.80;98855.50;4338365;32;20095;-87
2023/04/02 05:13:17;;;;;;;1.83;1.40;;;;;;;11.39;59.81;98851.09;4317534;33;20111;-87
2023/04/02 05:15:54;;;;;;;2.53;1.43;;;;;;;11.42;59.81;98850.94;4291034;33;20123;-87
2023/04/02 05:18:22;;;;;;;1.62;1.27;;;;;;;11.56;59.82;98848.47;4327859;32;20103;-87
2023/04/02 05:20:51;;;;;;;1.52;1.15;;;;;;;11.80;59.83;98849.03;4350620;32;20173;-87
2023/04/02 05:23:33;;;;;;;1.77;1.20;;;;;;;11.67;59.82;98850.56;4325910;32;20493;-86
2023/04/02 05:26:08;;;;;;;1.35;0.90;;;;;;;11.94;59.84;98853.53;4326323;32;20448;-87
2023/04/02 05:28:35;;;;;;;2.12;1.25;;;;;;;12.08;59.85;98850.22;4338421;32;20129;-87
2023/04/02 05:31:04;;;;;;;2.42;1.00;;;;;;;12.06;59.85;98852.88;4350434;32;20162;-87
2023/04/02 05:33:31;;;;;;;1.62;1.05;;;;;;;12.26;59.85;98854.44;4338118;32;20106;-87
2023/04/02 05:36:02;;;;;;;1.12;0.98;;;;;;;12.46;59.87;98859.47;4325908;32;20107;-87
2023/04/02 05:38:29;;;;;;;1.25;0.90;;;;;;;12.48;59.87;98859.38;4338486;32;20114;-86
2023/04/02 05:41:20;;;;;;;1.87;1.00;;;;;;;12.62;59.88;98859.47;4338073;32;20137;-87
2023/04/02 05:43:47;;;;;;;1.58;0.90;;;;;;;12.79;59.89;98858.56;4352379;32;20507;-87
2023/04/02 05:46:24;;;;;;;0.98;0.80;;;;;;;12.80;59.88;98861.09;4337983;32;20111;-87
2023/04/02 05:48:51;;;;;;;1.30;0.90;;;;;;;12.87;59.89;98869.41;4338567;32;20122;-87
2023/04/02 05:51:20;;;;;;;0.82;0.70;;;;;;;12.86;59.89;98868.56;4325948;32;20164;-86
2023/04/02 05:53:48;;;;;;;1.70;0.98;;;;;;;12.94;59.89;98864.69;4338241;32;20154;-86
2023/04/02 05:56:22;;;;;;;2.50;0.52;;;;;;;12.97;59.90;98877.56;4338028;32;20522;-87
2023/04/02 05:59:06;;;;;;;0.95;0.60;;;;;;;12.89;59.88;98872.78;4338291;32;20102;-87
2023/04/02 06:01:39;;;;;;;1.70;0.80;;;;;;;13.19;59.92;98872.87;4350353;32;20166;-87
2023/04/02 06:04:33;;;;;;;1.48;0.98;;;;;;;13.18;59.90;98866.81;4350241;32;20095;-86
2023/04/02 06:07:16;;;;;;;1.42;0.95;;;;;;;13.25;59.91;98874.28;4350127;32;20799;-86
2023/04/02 06:09:45;;;;;;;3.55;1.80;;;;;;;13.47;59.92;98867.75;4337855;32;20392;-86
2023/04/02 06:12:26;;;;;;;3.03;1.40;;;;;;;13.56;59.92;98871.63;4350001;32;20113;-86
2023/04/02 06:14:51;;;;;;;2.03;1.15;;;;;;;13.76;59.94;98873.91;4363831;32;20091;-87
2023/04/02 06:17:17;;;;;;;3.12;1.10;;;;;;;13.64;59.93;98873.78;4337700;32;20137;-87
2023/04/02 06:19:43;;;;;;;1.77;1.20;;;;;;;13.87;59.94;98875.03;4337643;32;20157;-86
2023/04/02 06:22:34;;;;;;;2.35;1.10;;;;;;;13.87;59.94;98877.66;4337554;32;20388;-86
2023/04/02 06:25:05;;;;;;;0.90;0.70;;;;;;;13.91;59.95;98884.38;4337884;32;20095;-86
2023/04/02 06:27:31;;;;;;;1.30;1.02;;;;;;;13.75;59.94;98882.69;4338101;32;20119;-86
2023/04/02 06:29:59;;;;;;;1.20;1.00;;;;;;;13.48;59.92;98892.12;4325509;32;20469;-87
2023/04/02 06:32:26;;;;;;;2.67;0.98;;;;;;;13.63;59.93;98893.00;4325483;32;20461;-86
2023/04/02 06:34:51;;;;;;;1.40;1.12;;;;;;;13.71;59.94;98890.78;4338089;32;20483;-87
2023/04/02 06:37:28;;;;;;;1.30;1.10;;;;;;;13.75;59.94;98885.31;4325550;32;20110;-87
2023/04/02 06:39:54;;;;;;;3.67;1.10;;;;;;;13.77;59.94;98888.66;4350111;32;20170;-86
2023/04/02 06:42:33;;;;;;;1.70;1.33;;;;;;;13.76;59.94;98894.00;4350209;32;20158;-86
2023/04/02 06:44:58;;;;;;;1.90;1.42;;;;;;;13.53;59.93;98897.94;4338693;32;20334;-86
2023/04/02 06:47:37;;;;;;;1.40;1.00;;;;;;;13.54;59.92;98902.25;4337786;32;20200;-86
2023/04/02 06:50:23;;;;;;;1.45;1.33;;;;;;;13.83;59.95;98901.38;4350230;32;20178;-86
2023/04/02 06:52:53;;;;;;;2.95;1.40;;;;;;;13.63;59.93;98904.31;4351687;32;20096;-87
2023/04/02 06:55:19;;;;;;;1.55;1.17;;;;;;;13.68;59.93;98912.72;4337663;32;20456;-86
2023/04/02 06:57:44;;;;;;;1.95;1.20;;;;;;;13.75;59.94;98898.38;4363736;32;20163;-86
2023/04/02 07:00:41;;;;;;;3.30;1.27;;;;;;;13.78;59.94;98908.66;4337776;32;20483;-86
2023/04/02 07:03:23;;;;;;;1.27;1.17;;;;;;;13.55;59.93;98910.94;4352218;32;20125;-86
2023/04/02 07:05:49;;;;;;;1.98;1.00;;;;;;;13.90;59.95;98899.25;4327104;32;20475;-86
2023/04/02 07:08:14;;;;;;;2.10;1.02;;;;;;;13.92;59.94;98894.75;4349286;32;20103;-86
2023/04/02 07:10:41;;;;;;;2.22;1.05;;;;;;;14.10;59.96;98908.53;4337580;32;20150;-87
2023/04/02 07:13:12;;;;;;;2.62;1.10;;;;;;;14.13;59.96;98897.88;4349881;32;20166;-87
2023/04/02 07:15:38;;;;;;;1.60;0.90;;;;;;;14.27;59.97;98910.13;4338028;32;20087;-86
2023/04/02 07:18:03;;;;;;;3.50;1.17;;;;;;;14.35;59.97;98910.50;4337292;32;20099;-86
2023/04/02 07:20:30;;;;;;;2.92;1.30;;;;;;;14.30;59.97;98925.66;4349958;32;20402;-87
2023/04/02 07:22:56;;;;;;;1.15;0.90;;;;;;;13.99;59.95;98918.81;4337559;32;20083;-88
2023/04/02 07:25:22;;;;;;;2.58;1.10;;;;;;;13.99;59.95;98921.41;4337540;32;20087;-88
2023/04/02 07:27:48;;;;;;;1.25;0.90;;;;;;;13.95;59.94;98919.88;4337393;32;20520;-87
2023/04/02 07:30:13;;;;;;;1.25;1.15;;;;;;;13.97;59.95;98918.91;4337513;32;20103;-88
2023/04/02 07:32:39;;;;;;;1.50;1.02;;;;;;;13.93;59.94;98932.22;4349755;32;20091;-87
2023/04/02 07:35:05;;;;;;;1.70;1.23;;;;;;;14.13;59.96;98926.66;4325096;32;20099;-87
2023/04/02 07:37:30;;;;;;;2.75;1.33;;;;;;;14.23;59.96;98929.59;4337252;32;20803;-87
2023/04/02 07:39:56;;;;;;;1.45;1.10;;;;;;;14.08;59.96;98926.09;4337405;32;20126;-87
2023/04/02 07:42:21;;;;;;;2.62;1.52;;;;;;;14.32;59.97;98924.63;4349648;32;20449;-87
2023/04/02 07:44:47;;;;;;;1.67;1.20;;;;;;;14.29;59.97;98927.44;4349382;32;20103;-87
2023/04/02 07:47:12;;;;;;;2.08;1.20;;;;;;;14.35;59.98;98934.91;4348979;32;24361;-87
2023/04/02 07:49:38;;;;;;;2.95;1.52;;;;;;;14.24;59.96;98939.97;4349517;32;20322;-86
2023/04/02 07:52:03;;;;;;;2.85;1.10;;;;;;;14.29;59.97;98937.91;4336958;32;20413;-86
2023/04/02 07:54:29;;;;;;;1.70;1.50;;;;;;;14.47;59.98;98935.16;4349511;32;20486;-86
2023/04/02 07:56:55;;;;;;;2.72;1.25;;;;;;;14.59;59.99;98932.59;4337243;32;20167;-86
2023/04/02 07:59:20;;;;;;;1.95;1.20;;;;;;;14.76;59.99;98935.97;4324488;32;20150;-85
2023/04/02 08:01:46;;;;;;;3.00;1.35;;;;;;;14.70;59.99;98950.31;4324735;32;20083;-85
2023/04/02 08:04:21;;;;;;;2.05;1.30;;;;;;;14.87;60.01;98933.50;4349312;32;20127;-85
2023/04/02 08:06:47;;;;;;;1.40;1.30;;;;;;;14.81;60.00;98940.00;4349262;32;20178;-86
2023/04/02 08:09:13;;;;;;;1.35;1.23;;;;;;;14.80;60.00;98954.03;4337028;32;20170;-86
2023/04/02 08:11:40;;;;;;;2.35;1.50;;;;;;;14.66;60.00;98946.16;4336712;32;20669;-87
2023/04/02 08:14:07;;;;;;;2.37;1.17;;;;;;;14.76;60.00;98946.47;4337060;32;20087;-87
2023/04/02 08:16:43;;;;;;;1.80;1.30;;;;;;;14.80;60.00;98955.81;4337225;32;20527;-87
2023/04/02 08:19:09;;;;;;;1.95;1.60;;;;;;;14.48;59.98;98955.16;4348923;32;20099;-87
2023/04/02 08:21:34;;;;;;;2.25;1.80;;;;;;;14.77;59.99;98962.06;4325958;32;20435;-87
2023/04/02 08:24:00;;;;;;;4.57;1.60;;;;;;;14.85;60.00;98966.84;4350953;32;20138;-87
2023/04/02 08:26:26;;;;;;;2.60;1.70;;;;;;;14.95;60.01;98960.94;4351012;32;20138;-88
2023/04/02 08:28:51;;;;;;;2.00;1.77;;;;;;;15.14;60.01;98959.75;4338669;32;20098;-87
2023/04/02 08:31:16;;;;;;;2.87;1.25;;;;;;;15.01;60.00;98960.56;4338437;32;20392;-87
2023/04/02 08:33:42;;;;;;;2.10;1.52;;;;;;;15.12;60.02;98956.41;4338491;32;20547;-86
2023/04/02 08:36:17;;;;;;;2.97;2.35;;;;;;;15.19;60.02;98961.19;4338086;32;23038;-86
2023/04/02 08:38:42;;;;;;;2.17;1.77;;;;;;;15.16;60.01;98957.91;4339267;32;20108;-86
2023/04/02 08:41:13;;;;;;;2.62;1.52;;;;;;;15.09;60.02;98970.53;4338637;32;20079;-87
2023/04/02 08:43:39;;;;;;;2.72;2.00;;;;;;;15.33;60.03;98970.78;4339034;32;20087;-86
2023/04/02 08:46:08;;;;;;;3.17;1.75;;;;;;;15.46;60.03;98961.19;4350814;32;20111;-86
2023/04/02 08:48:34;;;;;;;1.95;1.48;;;;;;;15.40;60.03;98972.09;4350389;32;20403;-85
2023/04/02 08:50:59;;;;;;;3.12;1.87;;;;;;;15.43;60.03;98969.25;4339983;32;20090;-87
2023/04/02 08:53:27;;;;;;;1.70;1.55;;;;;;;15.46;60.03;98971.69;4348077;32;20087;-85
2023/04/02 08:56:08;;;;;;;2.35;1.80;;;;;;;15.49;60.04;98979.34;4349170;32;20177;-86
2023/04/02 08:58:40;;;;;;;1.77;1.52;;;;;;;15.48;60.03;98990.78;4338035;32;20138;-86
2023/04/02 09:01:06;;;;;;;1.77;1.50;;;;;;;15.76;60.05;98986.41;4348804;32;20087;-85
2023/04/02 09:03:40;;;;;;;1.77;1.45;;;;;;;15.82;60.05;98984.22;4336941;32;20106;-85
2023/04/02 09:06:06;;;;;;;2.67;1.80;;;;;;;15.81;60.06;98984.31;4336151;32;20095;-86
2023/04/02 09:08:32;;;;;;;2.47;1.60;;;;;;;15.85;60.05;98991.03;4336731;32;20107;-85
2023/04/02 09:11:22;;;;;;;2.10;1.73;;;;;;;16.14;60.07;98983.88;4336485;32;20083;-85
2023/04/02 09:13:53;;;;;;;2.72;1.58;;;;;;;16.07;60.07;98987.84;4354062;32;20109;-85
2023/04/02 09:16:21;;;;;;;2.97;2.10;;;;;;;15.95;60.07;98992.12;4336910;32;20177;-86
2023/04/02 09:18:46;;;;;;;3.65;1.98;;;;;;;16.22;60.07;98985.03;4349029;32;20133;-85
2023/04/02 09:21:16;;;;;;;2.40;1.70;;;;;;;16.51;60.09;98987.47;4336052;32;20087;-86
2023/04/02 09:23:41;;;;;;;2.60;1.80;;;;;;;16.48;60.09;98985.06;4362140;32;20086;-86
2023/04/02 09:26:21;;;;;;;2.72;1.92;;;;;;;16.60;60.10;98986.03;4335677;32;22540;-86
2023/04/02 09:28:47;;;;;;;;;;;;;;;16.42;60.08;98991.59;4337402;32;20110;-86
2023/04/02 09:31:19;;;;;;;3.42;1.65;;;;;;;16.58;60.09;98994.00;4348208;32;20004;-85
2023/04/02 09:33:45;;;;;;;2.17;1.90;;;;;;;16.47;60.09;98991.25;4336316;32;20102;-86
2023/04/02 09:36:24;;;;;;;1.90;1.30;;;;;;;16.62;60.10;98997.28;4349045;32;20137;-87
2023/04/02 09:39:05;;;;;;;2.72;1.30;;;;;;;16.53;60.09;98996.94;4339991;32;20996;-86
2023/04/02 09:41:30;;;;;;;2.00;1.42;;;;;;;16.42;60.08;98998.62;4337704;32;20161;-86
2023/04/02 09:44:20;;;;;;;2.95;1.77;;;;;;;16.63;60.10;98998.94;4336755;32;20112;-86
2023/04/02 09:46:51;;;;;;;1.73;1.62;;;;;;;16.66;60.10;99001.34;4348798;32;20508;-87
2023/04/02 09:49:17;;;;;;;3.53;1.40;;;;;;;16.70;60.09;99002.84;4336497;32;20522;-86
2023/04/02 09:51:42;;;;;;;1.95;1.60;;;;;;;16.63;60.10;98998.94;4333903;33;20123;-85
2023/04/02 09:54:14;;;;;;;2.72;1.90;;;;;;;16.66;60.10;99011.88;4355960;32;20091;-88
2023/04/02 09:56:39;;;;;;;1.73;1.60;;;;;;;16.63;60.10;99012.94;4348833;32;20119;-87
2023/04/02 09:59:20;;;;;;;2.30;1.77;;;;;;;16.45;60.09;99014.16;4336410;32;20102;-86
2023/04/02 10:01:55;;;;;;;2.45;1.80;;;;;;;16.44;60.08;99009.87;4336500;32;20445;-87
2023/04/02 10:04:34;;;;;;;2.95;1.92;;;;;;;16.47;60.09;99015.75;4337022;32;20506;-87
2023/04/02 10:07:00;;;;;;;2.62;1.80;;;;;;;16.41;60.09;99015.31;4336602;32;20115;-84
2023/04/02 10:09:36;;;;;;;4.90;1.87;;;;;;;16.48;60.09;99020.06;4336401;32;20107;-87
2023/04/02 10:12:06;;;;;;;4.62;1.90;;;;;;;16.21;60.08;99016.66;4336145;32;20531;-86
2023/04/02 10:14:43;;;;;;;2.45;1.85;;;;;;;16.36;60.08;99017.44;4327267;32;20086;-85
2023/04/02 10:17:31;;;;;;;2.60;1.80;;;;;;;16.61;60.09;99014.81;4336012;32;20589;-87
2023/04/02 10:20:05;;;;;;;2.12;1.70;;;;;;;16.51;60.09;99008.50;4338358;32;20138;-87
2023/04/02 10:22:31;;;;;;;2.12;1.67;;;;;;;16.40;60.09;99013.66;4336413;32;20125;-86
2023/04/02 10:24:57;;;;;;;2.45;1.65;;;;;;;16.55;60.10;99002.91;4324017;32;20098;-86
2023/04/02 10:27:28;;;;;;;1.77;1.62;;;;;;;16.53;60.09;99003.97;4348446;32;20828;-86
2023/04/02 10:30:06;;;;;;;5.82;2.00;;;;;;;16.20;60.08;99013.19;4370777;32;20106;-85
2023/04/02 10:32:59;;;;;;;2.50;1.80;;;;;;;16.32;60.09;99008.88;4348862;32;20092;-86
2023/04/02 10:36:01;;;;;;;2.05;1.83;;;;;;;16.44;60.09;99000.19;4348557;32;20141;-85
2023/04/02 10:38:45;;;;;;;2.30;1.98;;;;;;;16.72;60.11;98995.72;4350569;32;20099;-86
2023/04/02 10:41:18;;;;;;;2.35;1.90;;;;;;;16.93;60.12;98998.62;4362290;32;20092;-85
2023/04/02 10:43:50;;;;;;;1.73;1.62;;;;;;;16.98;60.12;98996.53;4335522;32;20124;-85
2023/04/02 10:46:48;;;;;;;2.05;1.60;;;;;;;17.02;60.12;98987.47;4362489;32;20125;-85
2023/04/02 10:49:39;;;;;;;3.08;2.10;;;;;;;16.97;60.12;98992.22;4342196;32;20193;-86
2023/04/02 10:52:33;;;;;;;2.95;2.25;;;;;;;16.93;60.12;98983.69;4351304;32;20146;-86
2023/04/02 10:55:13;;;;;;;2.15;1.83;;;;;;;16.95;60.12;98987.06;4338206;32;20146;-85
2023/04/02 10:57:39;;;;;;;2.50;2.00;;;;;;;17.21;60.13;98979.94;4324973;32;20150;-87
2023/04/02 11:00:17;;;;;;;1.90;1.58;;;;;;;17.56;60.15;98984.47;4334006;33;20114;-87
2023/04/02 11:02:51;;;;;;;1.95;1.60;;;;;;;17.69;60.15;98974.75;4359771;32;20813;-87
2023/04/02 11:05:42;;;;;;;2.35;1.50;;;;;;;17.94;60.17;98979.87;4348817;32;20091;-86
2023/04/02 11:08:18;;;;;;;1.42;1.33;;;;;;;18.11;60.17;98978.63;4362631;32;20436;-86
2023/04/02 11:10:52;;;;;;;2.58;1.30;;;;;;;17.97;60.17;98981.44;4349053;32;20162;-88
2023/04/02 11:13:28;;;;;;;1.77;1.20;;;;;;;18.22;60.18;98989.22;4325178;32;20099;-87
2023/04/02 11:15:53;;;;;;;2.05;1.85;;;;;;;18.59;60.20;98979.31;4349592;32;20086;-88
2023/04/02 11:18:27;;;;;;;3.03;1.70;;;;;;;17.85;60.17;98982.38;4337298;32;20141;-87
2023/04/02 11:21:00;;;;;;;1.98;1.70;;;;;;;17.77;60.16;98985.59;4337870;32;20107;-88
2023/04/02 11:23:27;;;;;;;1.70;1.60;;;;;;;17.56;60.15;98987.13;4349611;32;20145;-87
2023/04/02 11:26:25;;;;;;;2.28;1.50;;;;;;;17.21;60.13;98982.59;4337450;32;20110;-87
2023/04/02 11:29:06;;;;;;;2.03;1.50;;;;;;;17.28;60.13;98989.09;4352116;32;20091;-87
2023/04/02 11:31:32;;;;;;;2.85;1.40;;;;;;;17.32;60.14;98987.94;4350165;32;20137;-88
2023/04/02 11:33:57;;;;;;;1.67;1.20;;;;;;;17.36;60.14;98980.66;4337231;32;20106;-87
2023/04/02 11:36:54;;;;;;;1.90;1.50;;;;;;;17.44;60.14;98973.88;4336936;32;20131;-86
2023/04/02 11:39:45;;;;;;;3.20;1.35;;;;;;;17.47;60.15;98960.50;4348633;32;20123;-87
2023/04/02 11:42:17;;;;;;;1.73;1.35;;;;;;;17.30;60.13;98973.22;4348469;32;20103;-88
2023/04/02 11:44:42;;;;;;;1.85;1.65;;;;;;;17.38;60.13;98970.84;4348696;32;20186;-87
2023/04/02 11:47:15;;;;;;;1.50;1.27;;;;;;;17.38;60.13;98973.50;4336599;32;20115;-87
2023/04/02 11:50:00;;;;;;;3.78;1.67;;;;;;;17.58;60.15;98972.87;4348762;32;20118;-88
2023/04/02 11:52:49;;;;;;;2.17;1.40;;;;;;;17.43;60.15;98974.00;4349505;32;20373;-88
2023/04/02 11:55:31;;;;;;;1.67;1.50;;;;;;;17.38;60.14;98976.12;4336639;32;20170;-88
2023/04/02 11:58:19;;;;;;;2.03;1.52;;;;;;;17.32;60.14;98974.78;4337247;32;20444;-87
2023/04/02 12:01:06;;;;;;;3.10;1.90;;;;;;;17.68;60.15;98965.19;4362733;32;20087;-87
2023/04/02 12:03:59;;;;;;;1.75;1.30;;;;;;;17.91;60.16;98966.13;4362785;32;20143;-88